Time;durP1;ratioP1;P1;durP2;ratioP2;P2;SDS_P1;SDS_P2;PMS_P1;PMS_P2;Temp;Humidity;BMP_temperature;BMP_pressure;BME280_temperature;BME280_humidity;BME280_pressure;Samples;Min_cycle;Max_cycle;Signal;HPM_P1;HPM_P2
2023/06/26 00:03:32;;;;;;;13.52;12.23;;;;;;;22.59;68.38;101173.66;4963113;28;20043;-58
2023/06/26 00:06:00;;;;;;;14.68;12.05;;;;;;;22.62;68.37;101168.28;5123593;23;20056;-57
2023/06/26 00:08:26;;;;;;;13.02;11.70;;;;;;;22.69;66.34;101169.88;4974405;28;20026;-57
2023/06/26 00:10:51;;;;;;;13.15;11.75;;;;;;;22.74;65.46;101169.81;5043337;23;20799;-56
2023/06/26 00:18:23;;;;;;;12.45;11.25;;;;;;;22.86;65.10;101155.38;5388970;23;20055;-55
2023/06/26 00:23:16;;;;;;;12.02;10.82;;;;;;;22.82;63.69;101151.03;5249505;23;20379;-55
2023/06/26 00:25:42;;;;;;;14.13;11.75;;;;;;;22.83;65.39;101158.09;4982694;23;20034;-55
2023/06/26 00:28:07;;;;;;;13.00;11.70;;;;;;;22.84;65.69;101158.06;5032902;23;20053;-58
2023/06/26 00:30:32;;;;;;;12.90;11.60;;;;;;;22.86;67.11;101155.38;5113926;23;20126;-57
2023/06/26 00:32:58;;;;;;;12.68;11.35;;;;;;;22.87;65.34;101151.78;5126661;23;20841;-55
2023/06/26 00:35:23;;;;;;;12.75;11.45;;;;;;;22.88;66.18;101154.44;4950090;28;20101;-55
2023/06/26 00:37:49;;;;;;;12.52;11.32;;;;;;;22.90;66.75;101151.75;5117303;23;20087;-54
2023/06/26 00:40:14;;;;;;;16.33;11.70;;;;;;;22.88;64.71;101154.44;5190584;23;20070;-58
2023/06/26 00:45:15;;;;;;;13.20;11.27;;;;;;;22.84;66.00;101151.88;5067315;23;20070;-58
2023/06/26 00:47:41;;;;;;;13.20;11.90;;;;;;;22.84;65.16;101157.19;5113056;23;20025;-55
2023/06/26 00:50:06;;;;;;;12.82;11.43;;;;;;;22.79;65.80;101162.59;5213938;23;20058;-54
2023/06/26 00:52:32;;;;;;;13.65;12.20;;;;;;;22.76;65.78;101165.31;5267039;23;20050;-55
2023/06/26 00:57:27;;;;;;;15.65;13.43;;;;;;;22.61;66.51;101155.03;5212579;23;20025;-55
2023/06/26 00:59:52;;;;;;;15.25;13.73;;;;;;;22.58;66.54;101156.84;4974827;28;20030;-54
2023/06/26 01:02:19;;;;;;;14.95;13.45;;;;;;;22.53;66.66;101157.84;5122419;23;20162;-55
2023/06/26 01:04:54;;;;;;;16.20;13.52;;;;;;;22.47;67.29;101165.97;5297025;23;20074;-54
2023/06/26 01:09:54;;;;;;;15.65;13.98;;;;;;;22.36;67.87;101163.50;4935193;28;20205;-58
2023/06/26 01:12:20;;;;;;;14.63;13.10;;;;;;;22.26;68.09;101165.47;4939314;28;20034;-58
2023/06/26 01:14:45;;;;;;;13.80;12.35;;;;;;;22.20;67.99;101173.53;5028572;23;20043;-58
2023/06/26 01:17:15;;;;;;;14.48;11.95;;;;;;;22.16;68.89;101179.78;4992982;23;20057;-55
2023/06/26 01:19:41;;;;;;;13.70;12.27;;;;;;;22.06;67.99;101177.31;5238940;23;20141;-57
2023/06/26 01:22:28;;;;;;;13.63;12.23;;;;;;;22.01;68.49;101175.66;5123269;23;20053;-57
2023/06/26 01:27:32;;;;;;;15.77;11.93;;;;;;;21.88;68.69;101180.31;4971009;23;20062;-57
2023/06/26 01:30:00;;;;;;;12.70;11.20;;;;;;;21.84;68.29;101179.50;5086854;23;20054;-58
2023/06/26 01:32:26;;;;;;;14.43;11.60;;;;;;;21.83;69.24;101184.84;5053794;23;20569;-55
2023/06/26 01:34:52;;;;;;;12.50;10.70;;;;;;;21.73;68.61;101191.22;5052819;23;20047;-55
2023/06/26 01:39:47;;;;;;;13.25;10.75;;;;;;;21.64;69.26;101193.13;5282274;23;20058;-55
2023/06/26 01:42:12;;;;;;;12.23;10.40;;;;;;;21.57;69.24;101183.50;4958511;28;20418;-54
2023/06/26 01:47:17;;;;;;;13.43;10.27;;;;;;;21.49;69.29;101206.59;5298275;23;20059;-57
2023/06/26 01:50:23;;;;;;;12.45;9.88;;;;;;;21.38;68.76;101201.47;4940363;28;20027;-57
2023/06/26 01:55:35;;;;;;;11.82;9.23;;;;;;;21.32;69.19;101210.38;5219962;23;20058;-55
2023/06/26 02:00:36;;;;;;;12.85;9.30;;;;;;;21.19;70.06;101222.94;5347110;23;20599;-59
2023/06/26 02:05:37;;;;;;;12.40;9.52;;;;;;;21.06;70.47;101218.72;5083358;23;20066;-57
2023/06/26 02:08:02;;;;;;;11.52;9.05;;;;;;;21.11;70.44;101218.66;5140226;23;20058;-59
2023/06/26 02:10:28;;;;;;;13.32;8.85;;;;;;;21.00;70.38;101227.63;5140382;23;20184;-59
2023/06/26 02:12:53;;;;;;;12.48;9.05;;;;;;;20.94;69.80;101217.13;4961038;28;20026;-59
2023/06/26 02:15:18;;;;;;;12.30;8.90;;;;;;;20.91;71.16;101211.84;5103742;23;20647;-59
2023/06/26 02:17:47;;;;;;;12.80;8.60;;;;;;;20.89;70.30;101213.66;5278043;23;20050;-57
2023/06/26 02:20:11;;;;;;;11.18;8.35;;;;;;;20.90;71.61;101220.69;5085834;23;20150;-57
2023/06/26 02:22:37;;;;;;;12.48;8.57;;;;;;;20.82;71.63;101211.97;5050388;23;20201;-57
2023/06/26 02:25:02;;;;;;;13.60;9.13;;;;;;;20.78;71.64;101215.56;5038403;23;20764;-57
2023/06/26 02:27:27;;;;;;;9.57;7.20;;;;;;;20.76;70.44;101214.72;5024314;23;20157;-60
2023/06/26 02:32:28;;;;;;;10.15;6.90;;;;;;;20.67;70.98;101223.66;5045207;23;20067;-57
2023/06/26 02:40:04;;;;;;;10.18;6.43;;;;;;;20.52;71.00;101224.66;5197091;23;20054;-57
2023/06/26 02:42:31;;;;;;;9.60;7.00;;;;;;;20.46;71.20;101233.53;4966599;28;20459;-57
2023/06/26 02:50:02;;;;;;;10.57;6.68;;;;;;;20.27;71.55;101232.88;5074778;23;20078;-56
2023/06/26 02:52:28;;;;;;;10.75;5.82;;;;;;;20.24;71.53;101243.47;5166206;23;20522;-56
2023/06/26 02:57:29;;;;;;;9.30;5.95;;;;;;;20.10;71.67;101255.97;5137567;23;20402;-59
2023/06/26 03:02:33;;;;;;;9.80;5.82;;;;;;;20.04;71.62;101253.38;4979554;23;20050;-59
2023/06/26 03:04:58;;;;;;;9.50;5.78;;;;;;;19.95;72.20;101260.50;5263976;23;20032;-56
2023/06/26 03:07:24;;;;;;;9.20;5.60;;;;;;;19.92;72.31;101267.59;5051082;23;20119;-56
2023/06/26 03:09:49;;;;;;;9.85;6.25;;;;;;;19.94;72.42;101274.66;5082493;23;20060;-56
2023/06/26 03:12:14;;;;;;;11.18;5.90;;;;;;;19.85;72.62;101273.84;5119156;23;20058;-57
2023/06/26 03:14:40;;;;;;;10.57;5.90;;;;;;;19.80;72.72;101271.22;5115888;23;20109;-56
2023/06/26 03:17:07;;;;;;;9.73;5.75;;;;;;;19.79;72.71;101269.47;5138834;23;20108;-55
2023/06/26 03:19:32;;;;;;;9.70;5.78;;;;;;;19.79;72.42;101261.53;5168614;23;20414;-56
2023/06/26 03:21:57;;;;;;;9.98;6.05;;;;;;;19.79;72.75;101264.19;5115293;23;20046;-56
2023/06/26 03:24:23;;;;;;;9.65;5.78;;;;;;;19.69;72.91;101265.09;4961014;28;20035;-56
2023/06/26 03:26:48;;;;;;;9.50;5.68;;;;;;;19.67;74.29;101259.84;5046767;23;20059;-56
2023/06/26 03:39:21;;;;;;;11.38;6.07;;;;;;;19.53;76.75;101265.22;5266358;23;20579;-56
2023/06/26 03:44:22;;;;;;;15.63;5.85;;;;;;;19.53;77.62;101269.63;4895061;26;20071;-56
2023/06/26 03:46:47;;;;;;;10.35;5.65;;;;;;;19.45;77.99;101264.38;5137962;23;20791;-56
2023/06/26 03:49:13;;;;;;;11.18;6.15;;;;;;;19.47;78.35;101267.91;5122725;23;20069;-57
2023/06/26 03:51:38;;;;;;;12.07;6.18;;;;;;;19.43;78.86;101263.53;4970359;28;20072;-56
2023/06/26 03:54:04;;;;;;;11.98;6.35;;;;;;;19.48;79.00;101268.75;5070585;23;20470;-59
2023/06/26 03:56:29;;;;;;;13.38;6.05;;;;;;;19.38;79.57;101273.22;5267729;23;20022;-56
2023/06/26 03:58:54;;;;;;;11.45;6.18;;;;;;;19.36;79.79;101277.66;4941080;28;20035;-56
2023/06/26 04:03:55;;;;;;;12.05;6.32;;;;;;;19.29;80.75;101280.34;5199724;23;20063;-56
2023/06/26 04:06:20;;;;;;;15.57;6.72;;;;;;;19.29;81.15;101290.91;4937987;29;20078;-56
2023/06/26 04:08:48;;;;;;;13.90;6.28;;;;;;;19.32;81.27;101294.41;4937862;29;20036;-56
2023/06/26 04:11:13;;;;;;;11.52;6.05;;;;;;;19.29;80.81;101298.84;4938625;29;20039;-56
2023/06/26 04:13:38;;;;;;;11.13;6.40;;;;;;;19.33;82.29;101309.38;4919781;29;20031;-56
2023/06/26 04:16:04;;;;;;;12.98;6.63;;;;;;;19.28;82.19;101305.00;4937844;29;20035;-56
2023/06/26 04:18:29;;;;;;;12.77;6.55;;;;;;;19.28;82.75;101305.00;4936783;29;20035;-56
2023/06/26 04:21:24;;;;;;;14.88;6.63;;;;;;;19.31;82.53;101317.31;4937628;29;20046;-56
2023/06/26 04:23:50;;;;;;;15.18;6.78;;;;;;;19.39;83.03;101314.63;4925544;29;20138;-56
2023/06/26 04:26:16;;;;;;;13.50;6.90;;;;;;;19.34;83.20;101313.78;4938955;29;20106;-56
2023/06/26 04:28:43;;;;;;;13.35;7.00;;;;;;;19.31;83.63;101314.69;4921842;29;20019;-56
2023/06/26 04:31:08;;;;;;;15.15;7.15;;;;;;;19.33;84.06;101312.91;4938802;29;20035;-59
2023/06/26 04:33:38;;;;;;;14.38;7.30;;;;;;;19.39;83.62;101318.16;4937863;29;20094;-59
2023/06/26 04:36:04;;;;;;;16.15;7.07;;;;;;;19.45;84.68;101319.88;4938203;29;20085;-59
2023/06/26 04:38:30;;;;;;;14.43;6.90;;;;;;;19.48;84.34;101317.25;4937368;29;20031;-59
2023/06/26 04:40:56;;;;;;;13.05;7.00;;;;;;;19.46;84.31;101326.91;4938229;29;20035;-59
2023/06/26 04:43:21;;;;;;;12.63;6.68;;;;;;;19.43;84.30;101324.31;4937800;29;20034;-59
2023/06/26 04:45:46;;;;;;;12.25;6.40;;;;;;;19.48;85.47;101330.47;4937570;29;20045;-58
2023/06/26 04:48:11;;;;;;;16.40;7.20;;;;;;;19.48;85.38;101332.19;4938626;29;20031;-59
2023/06/26 04:50:37;;;;;;;13.43;6.88;;;;;;;19.44;85.99;101329.56;4939066;29;20034;-59
2023/06/26 04:53:02;;;;;;;16.23;7.30;;;;;;;19.41;86.20;101332.25;4938348;29;20031;-59
2023/06/26 04:55:28;;;;;;;14.45;7.20;;;;;;;19.39;86.58;101336.66;4936309;29;20070;-59
2023/06/26 04:57:53;;;;;;;13.02;6.93;;;;;;;19.48;86.77;101335.75;4936334;28;20032;-59
2023/06/26 05:00:19;;;;;;;16.55;7.15;;;;;;;19.39;87.26;101343.69;4936282;29;20031;-59
2023/06/26 05:02:44;;;;;;;16.83;7.18;;;;;;;19.39;87.24;101344.59;4937237;29;20111;-59
2023/06/26 05:05:10;;;;;;;14.43;6.80;;;;;;;19.37;87.48;101350.78;4932471;28;20163;-59
2023/06/26 05:07:36;;;;;;;15.02;7.22;;;;;;;19.37;87.00;101345.47;4936208;29;20019;-59
2023/06/26 05:10:01;;;;;;;15.02;6.55;;;;;;;19.44;86.89;101350.72;4934172;29;20042;-59
2023/06/26 05:12:26;;;;;;;17.92;6.72;;;;;;;19.39;87.08;101352.53;4935908;29;20031;-59
2023/06/26 05:14:51;;;;;;;17.02;6.78;;;;;;;19.38;87.77;101363.97;4934226;29;20031;-59
2023/06/26 05:17:17;;;;;;;15.77;6.85;;;;;;;19.44;87.66;101365.72;4935975;29;20023;-59
2023/06/26 05:19:42;;;;;;;15.52;7.28;;;;;;;19.40;87.87;101366.59;4934525;29;20439;-59
2023/06/26 05:22:08;;;;;;;14.02;6.80;;;;;;;19.39;87.52;101371.03;4935409;29;20511;-59
2023/06/26 05:24:35;;;;;;;12.88;5.50;;;;;;;19.32;87.82;101378.97;4934660;29;20502;-59
2023/06/26 05:27:01;;;;;;;15.75;6.88;;;;;;;19.33;87.85;101370.16;4933299;29;20039;-59
2023/06/26 05:29:27;;;;;;;14.18;5.70;;;;;;;19.42;87.02;101375.41;4934947;29;20027;-59
2023/06/26 05:31:55;;;;;;;14.43;6.88;;;;;;;19.33;87.73;101386.00;4934859;29;20150;-58
2023/06/26 05:34:22;;;;;;;12.48;6.80;;;;;;;19.29;88.25;101386.03;4933381;29;20035;-59
2023/06/26 05:36:50;;;;;;;13.75;6.70;;;;;;;19.40;86.73;101387.75;4935817;29;20029;-59
2023/06/26 05:39:16;;;;;;;15.20;6.93;;;;;;;19.31;87.22;101390.44;4935219;29;20034;-59
2023/06/26 05:41:45;;;;;;;16.00;6.38;;;;;;;19.36;86.67;101389.50;4935119;29;20032;-59
2023/06/26 05:44:10;;;;;;;;;;;;;;;19.32;86.57;101385.16;4932889;29;21121;-59
2023/06/26 05:46:36;;;;;;;14.77;6.25;;;;;;;19.38;86.89;101389.50;4934528;29;19923;-59
2023/06/26 05:49:01;;;;;;;15.27;6.05;;;;;;;19.34;87.35;101401.00;4934301;29;20155;-59
2023/06/26 05:51:27;;;;;;;17.20;6.22;;;;;;;19.34;87.57;101403.63;4934337;29;20036;-59
2023/06/26 05:53:53;;;;;;;12.80;5.75;;;;;;;19.39;86.75;101407.13;4934006;29;20027;-59
2023/06/26 05:56:19;;;;;;;10.77;5.35;;;;;;;19.44;85.50;101406.22;4935841;29;20061;-59
2023/06/26 05:58:45;;;;;;;14.98;5.65;;;;;;;19.49;85.31;101403.56;4935682;29;20110;-59
2023/06/26 06:01:11;;;;;;;12.52;5.82;;;;;;;19.48;84.96;101409.75;4934731;29;20034;-59
2023/06/26 06:03:37;;;;;;;15.73;5.80;;;;;;;19.54;85.90;101417.66;4932796;29;20577;-59
2023/06/26 06:06:03;;;;;;;14.95;5.32;;;;;;;19.67;83.36;101417.56;4933986;29;20034;-59
2023/06/26 06:08:28;;;;;;;11.00;5.50;;;;;;;19.61;84.15;101421.13;4934564;29;20039;-59
2023/06/26 06:10:53;;;;;;;14.27;5.40;;;;;;;19.64;82.83;101429.94;4934905;29;20099;-59
2023/06/26 06:13:19;;;;;;;10.45;4.97;;;;;;;19.71;82.98;101430.78;4932395;29;20503;-59
2023/06/26 06:15:44;;;;;;;14.15;5.07;;;;;;;19.77;80.62;101435.16;4930561;29;20038;-59
2023/06/26 06:18:09;;;;;;;15.38;5.00;;;;;;;19.68;80.78;101430.78;4934322;29;20339;-59
2023/06/26 06:20:35;;;;;;;14.35;4.47;;;;;;;19.64;82.06;101437.84;4933250;29;20741;-59
2023/06/26 06:23:00;;;;;;;10.93;4.10;;;;;;;19.77;81.68;101440.47;4932183;29;20774;-59
2023/06/26 06:25:25;;;;;;;11.25;3.97;;;;;;;19.91;78.60;101445.69;4935885;29;20044;-59
2023/06/26 06:27:51;;;;;;;9.77;3.78;;;;;;;19.87;78.74;101439.56;4935864;29;20028;-59
2023/06/26 06:30:16;;;;;;;11.68;4.10;;;;;;;19.88;79.41;101449.22;4934693;29;20035;-59
2023/06/26 06:32:41;;;;;;;10.45;3.72;;;;;;;19.94;78.10;101443.03;4934760;29;20095;-59
2023/06/26 06:35:09;;;;;;;11.20;4.00;;;;;;;19.95;78.14;101447.44;4932527;29;20028;-59
2023/06/26 06:37:36;;;;;;;7.70;3.35;;;;;;;20.08;76.29;101443.81;4931609;29;20727;-59
2023/06/26 06:40:03;;;;;;;14.02;4.00;;;;;;;20.11;76.90;101454.38;4934615;29;20033;-59
2023/06/26 06:42:28;;;;;;;10.07;3.88;;;;;;;20.07;77.48;101459.72;4933537;29;20479;-59
2023/06/26 06:44:54;;;;;;;9.32;3.58;;;;;;;20.15;77.11;101463.19;4935874;29;20478;-59
2023/06/26 06:47:19;;;;;;;8.25;3.75;;;;;;;20.20;76.60;101471.97;4934440;29;20040;-59
2023/06/26 06:49:44;;;;;;;8.15;3.17;;;;;;;20.29;76.29;101471.94;4933663;29;20031;-59
2023/06/26 06:52:10;;;;;;;8.45;3.50;;;;;;;20.33;76.35;101478.97;4934255;29;20039;-59
2023/06/26 06:54:52;;;;;;;8.18;3.58;;;;;;;20.36;77.33;101488.63;4932704;29;20023;-59
2023/06/26 06:57:17;;;;;;;8.90;3.60;;;;;;;20.44;77.57;101483.28;4932878;29;20502;-59
2023/06/26 06:59:42;;;;;;;12.73;3.40;;;;;;;20.55;76.60;101473.50;4933653;29;20035;-59
2023/06/26 07:02:07;;;;;;;8.30;3.50;;;;;;;20.60;75.04;101484.94;4931173;29;20034;-59
2023/06/26 07:04:33;;;;;;;10.90;3.70;;;;;;;20.61;76.03;101491.09;4931079;29;20245;-59
2023/06/26 07:06:58;;;;;;;10.90;3.50;;;;;;;20.79;74.85;101503.34;4932776;29;20035;-59
2023/06/26 07:09:23;;;;;;;8.18;3.45;;;;;;;20.88;73.57;101503.25;4932647;29;20118;-59
2023/06/26 07:11:48;;;;;;;9.75;3.92;;;;;;;20.77;75.44;101507.78;4936199;29;20498;-59
2023/06/26 07:14:14;;;;;;;8.52;3.70;;;;;;;20.72;75.74;101502.53;4935184;29;20038;-59
2023/06/26 07:16:39;;;;;;;11.93;4.03;;;;;;;20.76;75.21;101512.19;4936197;29;20441;-59
2023/06/26 07:19:04;;;;;;;12.65;3.97;;;;;;;20.71;76.32;101505.19;4934341;29;20036;-59
2023/06/26 07:21:30;;;;;;;9.60;4.90;;;;;;;20.74;75.27;101506.06;4937037;28;20033;-59
2023/06/26 07:23:55;;;;;;;9.85;4.40;;;;;;;20.79;75.35;101513.94;4934983;29;20031;-59
2023/06/26 07:26:21;;;;;;;11.43;5.00;;;;;;;20.74;75.01;101521.03;4936182;29;20040;-59
2023/06/26 07:28:48;;;;;;;10.13;4.97;;;;;;;20.74;75.27;101527.25;4936314;29;20070;-59
2023/06/26 07:31:14;;;;;;;10.63;4.75;;;;;;;20.69;74.95;101520.22;4937252;29;20149;-60
2023/06/26 07:33:40;;;;;;;9.40;4.20;;;;;;;20.64;75.11;101531.69;4933988;29;20075;-60
2023/06/26 07:36:05;;;;;;;7.32;4.30;;;;;;;20.61;76.53;101534.34;4935344;29;20038;-60
2023/06/26 07:38:30;;;;;;;10.07;4.80;;;;;;;20.66;75.67;101540.50;4937815;29;20034;-60
2023/06/26 07:40:56;;;;;;;12.45;4.80;;;;;;;20.66;75.42;101545.81;4939503;29;20411;-60
2023/06/26 07:43:22;;;;;;;11.57;4.15;;;;;;;20.56;75.57;101544.09;4937533;29;20042;-60
2023/06/26 07:45:48;;;;;;;8.23;4.28;;;;;;;20.57;75.18;101545.84;4937166;29;20495;-60
2023/06/26 07:48:13;;;;;;;10.13;4.45;;;;;;;20.65;73.62;101546.69;4934622;29;20061;-60
2023/06/26 07:50:39;;;;;;;12.20;8.18;;;;;;;20.71;73.25;101547.56;4935248;29;20510;-61
2023/06/26 07:53:05;;;;;;;9.02;6.20;;;;;;;20.75;74.03;101563.41;4937116;29;20031;-60
2023/06/26 07:55:31;;;;;;;11.40;4.82;;;;;;;20.89;73.47;101562.44;4938099;29;20100;-60
2023/06/26 07:57:57;;;;;;;8.48;4.00;;;;;;;21.01;70.64;101567.63;4937953;29;20031;-60
2023/06/26 08:00:22;;;;;;;8.30;3.72;;;;;;;20.97;71.61;101560.59;4936734;28;20426;-60
2023/06/26 08:02:48;;;;;;;6.53;3.97;;;;;;;20.97;70.48;101569.44;4957288;28;20027;-60
2023/06/26 08:05:13;;;;;;;8.13;3.85;;;;;;;20.94;71.12;101566.81;4949872;28;20046;-60
2023/06/26 08:07:39;;;;;;;9.35;3.25;;;;;;;20.93;71.38;101562.41;4930758;29;20082;-60
2023/06/26 08:10:05;;;;;;;6.80;3.65;;;;;;;20.90;72.12;101570.38;4943850;29;20035;-60
2023/06/26 08:12:30;;;;;;;5.78;3.00;;;;;;;20.98;70.47;101578.25;4946399;29;20148;-60
2023/06/26 08:14:56;;;;;;;8.00;3.08;;;;;;;20.88;71.39;101576.56;4943110;29;20487;-60
2023/06/26 08:17:21;;;;;;;6.55;3.00;;;;;;;20.87;70.13;101580.09;4947141;29;20109;-60
2023/06/26 08:19:46;;;;;;;7.43;3.10;;;;;;;20.70;71.53;101577.56;4945256;29;20038;-60
2023/06/26 08:22:12;;;;;;;6.63;3.00;;;;;;;20.76;69.01;101574.91;4946304;29;20047;-60
2023/06/26 08:24:37;;;;;;;11.32;2.97;;;;;;;20.81;67.41;101573.97;4928838;29;20046;-60
2023/06/26 08:27:03;;;;;;;7.72;2.20;;;;;;;20.97;68.54;101580.03;4945787;29;20498;-60
2023/06/26 08:29:28;;;;;;;7.55;2.70;;;;;;;21.13;68.87;101582.53;4946171;29;21187;-60
2023/06/26 08:31:54;;;;;;;6.20;2.50;;;;;;;21.29;68.21;101584.19;4942610;28;20502;-60
2023/06/26 08:34:19;;;;;;;9.32;2.58;;;;;;;21.41;64.86;101587.63;4925331;29;20028;-61
2023/06/26 08:36:44;;;;;;;7.85;2.80;;;;;;;21.45;66.43;101590.22;4945305;29;20027;-60
2023/06/26 08:39:10;;;;;;;6.68;1.98;;;;;;;21.64;62.76;101588.28;4942797;29;20414;-60
2023/06/26 08:41:36;;;;;;;4.32;2.38;;;;;;;21.78;60.34;101589.91;4942323;29;20040;-60
2023/06/26 08:44:03;;;;;;;7.28;2.10;;;;;;;21.75;60.96;101593.47;4938640;29;20411;-60
2023/06/26 08:46:28;;;;;;;6.38;2.00;;;;;;;21.81;59.58;101596.06;4943068;29;20043;-60
2023/06/26 08:49:20;;;;;;;6.07;1.80;;;;;;;21.94;60.82;101604.78;4943071;29;20023;-61
2023/06/26 08:54:18;;;;;;;5.53;2.10;;;;;;;21.96;59.90;101604.75;5345716;23;1115861;-57
2023/06/26 08:56:47;;;;;;;7.80;2.00;;;;;;;22.04;60.28;101610.81;5148116;23;20104;-60
2023/06/26 08:59:14;;;;;;;4.25;2.22;;;;;;;22.11;60.56;101616.94;4986446;28;20031;-61
2023/06/26 09:01:40;;;;;;;6.20;2.20;;;;;;;22.23;58.86;101612.38;4987351;28;20489;-60
2023/06/26 09:04:06;;;;;;;4.95;1.83;;;;;;;22.30;58.08;101615.81;4986947;28;20077;-60
2023/06/26 09:06:32;;;;;;;4.88;2.00;;;;;;;22.13;60.61;101620.47;4985046;28;20041;-61
2023/06/26 09:08:57;;;;;;;6.50;2.00;;;;;;;22.15;61.68;101629.28;4986236;28;20034;-61
2023/06/26 09:11:22;;;;;;;5.82;1.88;;;;;;;22.19;59.87;101621.28;4986886;28;20030;-60
2023/06/26 09:13:48;;;;;;;4.50;1.90;;;;;;;22.32;57.53;101619.38;4987131;28;20030;-61
2023/06/26 09:16:13;;;;;;;5.10;1.70;;;;;;;22.20;59.11;101611.53;4987245;28;20062;-61
2023/06/26 09:18:40;;;;;;;4.55;1.80;;;;;;;22.14;59.02;101632.84;4985330;28;20401;-61
2023/06/26 09:21:07;;;;;;;4.93;1.73;;;;;;;21.94;56.27;101631.31;4985497;28;20495;-61
2023/06/26 09:23:34;;;;;;;4.90;1.80;;;;;;;21.70;55.99;101637.75;4986697;28;20528;-61
2023/06/26 09:26:01;;;;;;;5.10;1.70;;;;;;;21.30;58.14;101635.41;4986108;28;20034;-60
2023/06/26 09:28:26;;;;;;;5.95;1.98;;;;;;;21.31;59.39;101631.88;4986452;28;20096;-60
2023/06/26 09:30:52;;;;;;;5.68;1.90;;;;;;;21.51;58.63;101637.91;4985933;28;20498;-60
2023/06/26 09:33:20;;;;;;;4.97;2.00;;;;;;;21.71;59.31;101640.38;4985822;28;20038;-60
2023/06/26 09:35:46;;;;;;;4.90;1.90;;;;;;;21.91;59.56;101633.97;4986548;28;20037;-61
2023/06/26 09:38:13;;;;;;;5.10;1.77;;;;;;;22.19;59.75;101649.59;4986227;28;20442;-61
2023/06/26 09:40:39;;;;;;;4.82;1.90;;;;;;;22.30;56.47;101654.78;4985213;28;20577;-61
2023/06/26 09:43:05;;;;;;;4.50;1.42;;;;;;;22.27;58.28;101655.69;4984971;28;20038;-61
2023/06/26 09:45:36;;;;;;;3.53;1.70;;;;;;;22.34;56.74;101660.06;4985343;28;20038;-61
2023/06/26 09:48:02;;;;;;;6.25;1.80;;;;;;;22.52;56.32;101664.25;4986166;28;20482;-61
2023/06/26 09:50:29;;;;;;;4.00;1.60;;;;;;;22.57;54.44;101667.72;4985941;28;20501;-61
2023/06/26 09:52:55;;;;;;;5.55;1.50;;;;;;;22.43;54.82;101679.44;4985815;28;20042;-61
2023/06/26 09:55:23;;;;;;;5.78;2.30;;;;;;;22.55;54.22;101674.84;4985913;28;20026;-61
2023/06/26 09:57:52;;;;;;;5.70;1.75;;;;;;;22.67;55.18;101665.81;4985993;28;20045;-61
2023/06/26 10:00:17;;;;;;;4.13;1.50;;;;;;;22.92;53.31;101657.50;4968604;28;20485;-61
2023/06/26 10:02:43;;;;;;;6.38;1.50;;;;;;;23.20;52.94;101659.75;4986026;28;20022;-61
2023/06/26 10:05:09;;;;;;;3.97;1.42;;;;;;;23.20;48.95;101659.75;4985980;28;20498;-61
2023/06/26 10:07:37;;;;;;;4.15;1.50;;;;;;;22.99;51.59;101669.81;4985960;28;20045;-61
2023/06/26 10:10:04;;;;;;;5.28;1.38;;;;;;;23.09;50.59;101678.53;4986410;28;20026;-61
2023/06/26 10:12:31;;;;;;;4.32;1.30;;;;;;;23.04;47.21;101675.94;4986095;28;20038;-61
2023/06/26 10:14:57;;;;;;;2.83;1.25;;;;;;;23.13;48.46;101680.28;4985502;28;20069;-61
2023/06/26 10:17:27;;;;;;;5.60;1.55;;;;;;;23.30;48.87;101692.41;4985727;28;20422;-61
2023/06/26 10:19:56;;;;;;;3.30;1.27;;;;;;;23.34;49.69;101676.38;4986309;28;20125;-61
2023/06/26 10:22:24;;;;;;;4.30;1.27;;;;;;;23.24;48.50;101683.63;4968861;28;20026;-61
2023/06/26 10:24:52;;;;;;;2.88;1.13;;;;;;;23.25;47.55;101688.03;4984126;28;20041;-61
2023/06/26 10:27:20;;;;;;;3.85;1.13;;;;;;;23.33;48.79;101676.41;4985022;28;20085;-61
2023/06/26 10:29:49;;;;;;;1.85;0.95;;;;;;;23.45;45.54;101686.84;4986161;28;20026;-61
2023/06/26 10:32:17;;;;;;;3.03;1.33;;;;;;;23.52;46.15;101680.53;4985873;28;20038;-61
2023/06/26 10:34:43;;;;;;;6.00;1.20;;;;;;;23.57;45.02;101686.63;4985062;28;20038;-61
2023/06/26 10:37:08;;;;;;;3.55;1.13;;;;;;;23.46;46.29;101682.41;4984894;28;20536;-61
2023/06/26 10:39:45;;;;;;;4.63;1.30;;;;;;;23.61;44.61;101690.13;4986108;28;20034;-61
2023/06/26 10:42:11;;;;;;;3.55;1.25;;;;;;;23.71;44.32;101693.47;4986030;28;20034;-61
2023/06/26 10:44:44;;;;;;;3.50;1.30;;;;;;;23.77;44.10;101696.91;5148106;23;20331;-58
2023/06/26 10:49:46;;;;;;;3.28;1.17;;;;;;;24.00;44.05;101706.31;5049384;23;20383;-57
2023/06/26 10:52:12;;;;;;;4.85;1.45;;;;;;;23.97;42.96;101706.38;4980562;28;20766;-57
2023/06/26 10:54:37;;;;;;;3.88;1.35;;;;;;;23.75;43.87;101696.09;4981874;28;20034;-56
2023/06/26 10:57:03;;;;;;;4.15;1.50;;;;;;;23.66;45.68;101700.69;4983492;28;20034;-56
2023/06/26 10:59:30;;;;;;;3.83;1.27;;;;;;;23.77;43.94;101685.41;4987147;28;20031;-56
2023/06/26 11:02:00;;;;;;;4.80;1.20;;;;;;;23.72;45.65;101690.81;4987911;28;20034;-56
2023/06/26 11:04:37;;;;;;;3.30;1.30;;;;;;;23.81;42.79;101713.72;4985269;28;20030;-57
2023/06/26 11:07:16;;;;;;;6.30;1.20;;;;;;;23.74;43.19;101728.91;4987166;28;20030;-59
2023/06/26 11:09:55;;;;;;;4.75;1.40;;;;;;;23.70;45.01;101713.03;4988432;28;20085;-59
2023/06/26 11:12:48;;;;;;;2.90;1.08;;;;;;;23.91;43.80;101719.78;4988778;28;20042;-59
2023/06/26 11:15:16;;;;;;;4.40;1.38;;;;;;;23.71;44.49;101714.78;4985371;28;20034;-59
2023/06/26 11:17:42;;;;;;;4.25;1.30;;;;;;;23.67;45.57;101713.09;4987265;28;20034;-59
2023/06/26 11:20:10;;;;;;;4.07;1.10;;;;;;;23.83;43.49;101719.03;4988324;28;20030;-58
2023/06/26 11:22:37;;;;;;;4.65;1.40;;;;;;;23.72;45.15;101717.44;4988829;28;20489;-59
2023/06/26 11:25:03;;;;;;;3.55;1.25;;;;;;;23.74;44.13;101718.28;4987663;28;20030;-58
2023/06/26 11:27:46;;;;;;;4.60;1.75;;;;;;;23.90;44.76;101720.72;4988860;28;20034;-58
2023/06/26 11:30:23;;;;;;;3.85;1.55;;;;;;;23.95;43.58;101734.78;4987733;28;20026;-59
2023/06/26 11:32:49;;;;;;;3.45;1.50;;;;;;;23.65;42.74;101731.75;4988492;28;20056;-59
2023/06/26 11:35:29;;;;;;;4.57;1.98;;;;;;;23.47;44.27;101734.69;4986111;28;20481;-59
2023/06/26 11:38:00;;;;;;;3.33;1.40;;;;;;;23.43;46.79;101742.72;4971138;28;20554;-59
2023/06/26 11:40:31;;;;;;;3.65;1.30;;;;;;;23.58;45.60;101746.91;4988335;28;20420;-59
2023/06/26 11:42:58;;;;;;;6.35;1.38;;;;;;;23.65;43.48;101746.81;4988395;28;20045;-59
2023/06/26 11:45:23;;;;;;;4.35;1.60;;;;;;;23.37;43.74;101745.47;4987698;28;20036;-58
2023/06/26 11:47:49;;;;;;;5.07;1.60;;;;;;;23.32;47.50;101762.41;4988530;28;20026;-59
2023/06/26 11:55:18;;;;;;;4.40;1.45;;;;;;;23.43;45.34;101765.78;5133677;23;20062;-57
2023/06/26 11:57:48;;;;;;;4.10;1.40;;;;;;;23.49;44.06;101768.38;5150196;23;20046;-59
2023/06/26 12:00:15;;;;;;;5.03;1.58;;;;;;;23.54;46.02;101771.81;5136919;23;20061;-57
2023/06/26 12:05:07;;;;;;;4.20;1.48;;;;;;;23.73;46.68;101771.53;5087340;23;20059;-57
2023/06/26 12:07:33;;;;;;;5.93;1.70;;;;;;;23.97;45.16;101778.25;4977790;28;20394;-57
2023/06/26 12:09:59;;;;;;;4.32;1.60;;;;;;;23.88;47.16;101789.94;5297028;23;21749;-57
2023/06/26 12:17:29;;;;;;;4.45;1.63;;;;;;;23.84;47.73;101789.97;5109772;23;20059;-58
2023/06/26 12:22:35;;;;;;;4.53;1.80;;;;;;;23.49;46.83;101792.31;5079588;23;20090;-94
2023/06/26 12:25:01;;;;;;;3.85;1.58;;;;;;;23.55;43.42;101788.63;4949620;28;20057;-96
2023/06/26 12:27:27;;;;;;;4.00;1.63;;;;;;;23.56;45.18;101785.97;4944751;28;20117;-94
2023/06/26 12:29:54;;;;;;;3.75;1.50;;;;;;;23.68;44.65;101795.56;4943419;28;20022;-95
2023/06/26 12:32:22;;;;;;;4.72;1.90;;;;;;;23.64;45.81;101793.84;4951005;28;20014;-95
2023/06/26 12:34:52;;;;;;;6.43;1.63;;;;;;;23.84;45.45;101795.28;4944916;28;20038;-94
2023/06/26 12:37:20;;;;;;;3.53;1.42;;;;;;;23.95;45.72;101796.03;4960959;28;20027;-95
2023/06/26 12:39:57;;;;;;;4.25;1.40;;;;;;;23.91;46.00;101786.31;4963016;28;20065;-95
2023/06/26 12:42:24;;;;;;;4.88;1.70;;;;;;;23.99;45.70;101805.72;4945492;28;20027;-95
2023/06/26 12:44:54;;;;;;;3.78;1.65;;;;;;;23.97;45.63;101791.56;4945145;28;20026;-95